North Kingstown, Rhode Island
Current Conditions -  °F | °C
As of 3:53 AM on Thursday 23 Oct 2014 (Local Time) from KUUU Reporting Station
Overcast Overcast  
Wind Chill: 55°   Ceiling: 1000
Heat Index: 55°   Visibility: 10mi
Dew Point: 50°   Wind: 22mph
Humidity: 83%   Direction: 10°N
Pressure: 29.6"   Gusts: 40mph
Location:  41.6°N, 71.42°W
Report Text: KUUU 230753Z AUTO 01019G35KT 10SM OVC010 13/10 A2960 RMK AO2 PK WND 02035/0747 SLP024 T01280100
Loading
Personal Weather Stations






























Interactive Weather Map New forecast layout! Learn more

10-Day Weather Forecast

Advertisements
Track Severe Weather on mobile